Time;durP1;ratioP1;P1;durP2;ratioP2;P2;SDS_P1;SDS_P2;PMS_P1;PMS_P2;Temp;Humidity;BMP_temperature;BMP_pressure;BME280_temperature;BME280_humidity;BME280_pressure;Samples;Min_cycle;Max_cycle;Signal;HPM_P1;HPM_P2
2022/03/17 00:02:05;;;;;;;30.70;17.60;;;1.10;99.90;;;;;;4993133;28;20026;-77
2022/03/17 00:04:31;;;;;;;30.83;16.73;;;1.10;99.90;;;;;;4992969;28;20490;-78
2022/03/17 00:06:58;;;;;;;34.17;17.23;;;1.10;99.90;;;;;;4993237;28;20027;-78
2022/03/17 00:09:23;;;;;;;28.73;17.52;;;1.10;99.90;;;;;;4993079;28;20054;-78
2022/03/17 00:11:49;;;;;;;28.48;16.45;;;1.10;99.90;;;;;;4992815;28;20068;-78
2022/03/17 00:14:15;;;;;;;30.67;17.83;;;1.10;99.90;;;;;;4992853;28;20050;-78
2022/03/17 00:16:41;;;;;;;32.42;16.85;;;1.10;99.90;;;;;;4992782;28;20077;-75
2022/03/17 00:19:08;;;;;;;28.42;17.08;;;1.00;99.90;;;;;;4992905;28;20030;-75
2022/03/17 00:21:36;;;;;;;29.67;17.58;;;0.90;99.90;;;;;;4992789;28;20098;-75
2022/03/17 00:24:02;;;;;;;29.95;16.63;;;0.90;99.90;;;;;;4992856;28;20049;-75
2022/03/17 00:26:28;;;;;;;35.45;17.17;;;0.90;99.90;;;;;;4992830;28;20022;-75
2022/03/17 00:28:54;;;;;;;28.17;16.73;;;0.80;99.90;;;;;;4992535;28;20571;-75
2022/03/17 00:31:20;;;;;;;29.08;17.65;;;0.80;99.90;;;;;;4993025;28;20029;-75
2022/03/17 00:33:46;;;;;;;33.83;17.80;;;0.90;99.90;;;;;;4992419;28;20065;-75
2022/03/17 00:36:11;;;;;;;29.63;16.83;;;0.80;99.90;;;;;;4992864;28;20078;-75
2022/03/17 00:38:37;;;;;;;29.38;16.83;;;0.70;99.90;;;;;;4992489;28;20038;-75
2022/03/17 00:41:03;;;;;;;27.95;16.83;;;0.70;99.90;;;;;;4992706;28;20069;-76
2022/03/17 00:43:29;;;;;;;31.25;17.75;;;0.60;99.90;;;;;;4992743;28;20022;-75
2022/03/17 00:45:54;;;;;;;33.53;17.33;;;0.60;99.90;;;;;;4992503;28;20034;-76
2022/03/17 00:48:20;;;;;;;28.92;18.13;;;0.60;99.90;;;;;;4992623;28;20111;-75
2022/03/17 00:50:46;;;;;;;29.50;17.35;;;0.60;99.90;;;;;;4992411;28;20060;-76
2022/03/17 00:53:12;;;;;;;29.80;18.50;;;0.50;99.90;;;;;;4992391;28;20026;-75
2022/03/17 00:55:37;;;;;;;31.70;18.33;;;0.60;99.90;;;;;;4992633;28;20193;-75
2022/03/17 00:58:03;;;;;;;33.83;17.88;;;0.60;99.90;;;;;;4992378;28;20034;-76
2022/03/17 01:00:29;;;;;;;27.08;17.30;;;0.60;99.90;;;;;;4993038;28;20030;-76
2022/03/17 01:02:56;;;;;;;27.08;16.83;;;0.50;99.90;;;;;;4996297;28;20044;-76
2022/03/17 01:05:23;;;;;;;31.10;17.75;;;0.50;99.90;;;;;;4996320;28;20030;-75
2022/03/17 01:07:50;;;;;;;28.48;17.67;;;0.50;99.90;;;;;;4996328;28;20022;-75
2022/03/17 01:10:17;;;;;;;33.75;18.98;;;0.50;99.90;;;;;;4996555;28;20052;-76
2022/03/17 01:12:44;;;;;;;28.20;17.27;;;0.50;99.90;;;;;;4996022;28;20418;-76
2022/03/17 01:15:12;;;;;;;29.73;18.40;;;0.40;99.90;;;;;;4996425;28;20062;-75
2022/03/17 01:17:38;;;;;;;29.23;18.38;;;0.40;99.90;;;;;;4996319;28;20109;-75
2022/03/17 01:20:05;;;;;;;31.83;19.00;;;0.40;99.90;;;;;;4996441;28;20026;-75
2022/03/17 01:22:31;;;;;;;33.70;19.02;;;0.50;99.90;;;;;;4996254;28;20103;-75
2022/03/17 01:24:57;;;;;;;33.72;19.67;;;0.50;99.90;;;;;;4996031;28;20069;-77
2022/03/17 01:27:24;;;;;;;32.67;18.77;;;0.50;99.90;;;;;;4996165;28;20026;-77
2022/03/17 01:29:51;;;;;;;36.00;18.13;;;0.50;99.90;;;;;;4996118;28;20030;-76
2022/03/17 01:32:17;;;;;;;31.73;19.30;;;0.50;99.90;;;;;;4996195;28;20042;-76
2022/03/17 01:34:43;;;;;;;31.92;18.70;;;0.50;99.90;;;;;;4995599;28;20463;-76
2022/03/17 01:37:10;;;;;;;35.22;19.48;;;0.50;99.90;;;;;;4995703;28;20022;-77
2022/03/17 01:39:36;;;;;;;30.23;17.25;;;0.40;99.90;;;;;;4995504;28;20050;-76
2022/03/17 01:42:05;;;;;;;32.45;18.67;;;0.40;99.90;;;;;;4996046;28;20029;-76
2022/03/17 01:44:30;;;;;;;31.58;19.00;;;0.30;99.90;;;;;;4995541;28;20035;-75
2022/03/17 01:49:41;;;;;;;34.13;19.33;;;0.30;99.90;;;;;;4995590;28;20103;-81
2022/03/17 01:52:07;;;;;;;35.55;18.48;;;0.30;99.90;;;;;;4995670;28;20106;-81
2022/03/17 01:54:35;;;;;;;31.95;20.00;;;0.40;99.90;;;;;;4995641;28;20465;-81
2022/03/17 01:57:01;;;;;;;31.90;19.17;;;0.30;99.90;;;;;;4995370;28;20018;-78
2022/03/17 01:59:27;;;;;;;32.17;18.67;;;0.40;99.90;;;;;;4995428;28;20021;-79
2022/03/17 02:01:56;;;;;;;31.88;19.17;;;0.40;99.90;;;;;;4998916;28;20473;-78
2022/03/17 02:04:22;;;;;;;30.92;18.25;;;0.30;99.90;;;;;;4999793;28;20382;-79
2022/03/17 02:06:48;;;;;;;30.98;19.38;;;0.30;99.90;;;;;;4995496;28;20042;-78
2022/03/17 02:09:14;;;;;;;29.65;18.63;;;0.30;99.90;;;;;;4995824;28;20034;-78
2022/03/17 02:14:25;;;;;;;33.17;18.65;;;0.20;99.90;;;;;;4995326;28;20061;-77
2022/03/17 02:16:51;;;;;;;39.85;19.15;;;0.20;99.90;;;;;;4995211;28;20023;-77
2022/03/17 02:19:18;;;;;;;29.95;19.27;;;0.20;99.90;;;;;;4995081;28;20088;-77
2022/03/17 02:21:44;;;;;;;32.72;20.13;;;0.10;99.90;;;;;;4994986;28;20118;-77
2022/03/17 02:55:59;;;;;;;35.80;22.38;;;0.00;99.90;;;;;;4995056;28;20082;-78
2022/03/17 02:58:25;;;;;;;31.85;19.80;;;0.00;99.90;;;;;;4994137;28;20080;-78
2022/03/17 03:00:50;;;;;;;34.58;19.48;;;0.00;99.90;;;;;;4994277;28;20032;-77
2022/03/17 03:39:46;;;;;;;32.92;18.90;;;-0.10;99.90;;;;;;4992739;28;20029;-78
2022/03/17 03:42:12;;;;;;;32.92;20.02;;;-0.10;99.90;;;;;;4992120;28;20034;-76
2022/03/17 03:44:38;;;;;;;32.58;20.77;;;-0.10;99.90;;;;;;4993430;28;20112;-75
2022/03/17 03:47:05;;;;;;;35.97;21.38;;;-0.10;99.90;;;;;;4993298;28;20054;-76
2022/03/17 03:49:32;;;;;;;33.97;19.40;;;-0.20;99.90;;;;;;4992118;28;20033;-75
2022/03/17 03:51:57;;;;;;;31.08;19.83;;;-0.20;99.90;;;;;;4993216;28;20113;-76
2022/03/17 03:54:23;;;;;;;32.33;20.75;;;-0.20;99.90;;;;;;4993211;28;20110;-79
2022/03/17 03:56:51;;;;;;;33.00;20.70;;;-0.20;99.90;;;;;;4993208;28;20026;-79
2022/03/17 03:59:22;;;;;;;34.15;19.80;;;-0.20;99.90;;;;;;4993069;28;20518;-78
2022/03/17 04:01:50;;;;;;;35.08;19.90;;;-0.20;99.90;;;;;;4993261;28;20022;-78
2022/03/17 04:04:20;;;;;;;39.47;21.27;;;-0.20;99.90;;;;;;4992961;28;20038;-78
2022/03/17 04:06:49;;;;;;;33.60;21.02;;;-0.20;99.90;;;;;;4993200;28;20023;-79
2022/03/17 04:09:16;;;;;;;34.55;19.17;;;-0.20;99.90;;;;;;4993075;28;20057;-78
2022/03/17 04:11:43;;;;;;;33.78;20.45;;;-0.10;99.90;;;;;;4993483;28;20030;-77
2022/03/17 04:14:10;;;;;;;30.52;19.00;;;-0.10;99.90;;;;;;4993217;28;20065;-77
2022/03/17 04:16:36;;;;;;;31.20;19.00;;;0.00;99.90;;;;;;4993270;28;20418;-77
2022/03/17 04:19:03;;;;;;;31.55;19.02;;;0.00;99.90;;;;;;4992955;28;20105;-77
2022/03/17 04:21:28;;;;;;;30.10;17.88;;;0.00;99.90;;;;;;4993253;28;20026;-77
2022/03/17 04:23:54;;;;;;;31.65;18.85;;;0.00;99.90;;;;;;4992900;28;20496;-76
2022/03/17 04:26:20;;;;;;;30.73;18.30;;;0.00;99.90;;;;;;4992864;28;20486;-76
2022/03/17 04:28:45;;;;;;;36.50;19.70;;;0.10;99.90;;;;;;4992713;28;20033;-76
2022/03/17 04:31:11;;;;;;;31.85;19.05;;;0.00;99.90;;;;;;4992645;28;20470;-76
2022/03/17 04:33:37;;;;;;;29.17;18.30;;;0.00;99.90;;;;;;4992526;28;20061;-76
2022/03/17 04:36:04;;;;;;;32.63;18.75;;;-0.10;99.90;;;;;;4992340;28;20034;-76
2022/03/17 04:38:30;;;;;;;32.63;18.85;;;-0.10;99.90;;;;;;4992456;28;20073;-76
2022/03/17 04:40:56;;;;;;;30.35;18.42;;;-0.10;99.90;;;;;;4992896;28;20032;-76
2022/03/17 04:43:22;;;;;;;32.70;18.33;;;-0.20;99.90;;;;;;4992718;28;20109;-76
2022/03/17 04:45:48;;;;;;;30.67;18.83;;;-0.20;99.90;;;;;;4992816;28;20069;-76
2022/03/17 04:48:14;;;;;;;30.38;18.55;;;-0.20;99.90;;;;;;4992655;28;20026;-77
2022/03/17 04:50:40;;;;;;;30.73;18.10;;;-0.10;99.90;;;;;;4992792;28;20027;-76
2022/03/17 04:55:52;;;;;;;30.33;18.23;;;-0.10;99.90;;;;;;4992861;28;20428;-78
2022/03/17 04:58:18;;;;;;;31.80;18.52;;;-0.10;99.90;;;;;;4992565;28;20022;-75
2022/03/17 05:00:43;;;;;;;31.02;17.90;;;-0.10;99.90;;;;;;4992702;28;20034;-78
2022/03/17 05:03:10;;;;;;;31.25;17.73;;;-0.20;99.90;;;;;;4992528;28;20462;-79
2022/03/17 05:05:36;;;;;;;31.20;17.92;;;-0.20;99.90;;;;;;4992714;28;20400;-78
2022/03/17 05:08:02;;;;;;;32.47;19.17;;;-0.10;99.90;;;;;;4993140;28;20045;-80
2022/03/17 05:10:28;;;;;;;30.05;17.27;;;-0.10;99.90;;;;;;4994539;28;20045;-78
2022/03/17 05:12:55;;;;;;;30.60;17.98;;;-0.10;99.90;;;;;;4992189;28;20096;-78
2022/03/17 05:15:21;;;;;;;31.17;18.30;;;-0.20;99.90;;;;;;4991911;28;20058;-78
2022/03/17 05:17:49;;;;;;;29.40;17.52;;;-0.30;99.90;;;;;;4992248;28;20022;-77
2022/03/17 05:20:15;;;;;;;27.85;17.48;;;-0.20;99.90;;;;;;4992299;28;20030;-81
2022/03/17 05:22:41;;;;;;;31.63;18.10;;;-0.20;99.90;;;;;;4992205;28;20382;-80
2022/03/17 05:25:08;;;;;;;28.77;17.42;;;-0.10;99.90;;;;;;4992354;28;20131;-79
2022/03/17 05:27:42;;;;;;;33.17;17.40;;;-0.10;99.90;;;;;;4992411;28;20437;-77
2022/03/17 05:30:16;;;;;;;31.05;18.23;;;-0.10;99.90;;;;;;4992107;28;20088;-77
2022/03/17 05:32:43;;;;;;;30.15;18.08;;;-0.10;99.90;;;;;;4992485;28;20080;-72
2022/03/17 05:35:09;;;;;;;29.08;17.35;;;-0.20;99.90;;;;;;4991977;28;20034;-75
2022/03/17 05:37:35;;;;;;;27.75;18.10;;;-0.20;99.90;;;;;;4991708;28;20508;-70
2022/03/17 05:40:05;;;;;;;31.52;18.05;;;-0.20;99.90;;;;;;4992043;28;20042;-70
2022/03/17 05:42:33;;;;;;;33.40;19.35;;;0.10;99.90;;;;;;4992564;28;20101;-73
2022/03/17 05:44:58;;;;;;;31.77;18.83;;;0.60;99.90;;;;;;4992196;28;20038;-69
2022/03/17 05:47:24;;;;;;;31.73;17.98;;;0.60;99.90;;;;;;4996449;28;20385;-78
2022/03/17 05:49:50;;;;;;;27.40;17.38;;;0.70;99.90;;;;;;5014833;28;20060;-75
2022/03/17 05:52:16;;;;;;;34.38;18.88;;;0.90;99.90;;;;;;5011965;28;20607;-73
2022/03/17 05:54:41;;;;;;;30.73;18.58;;;1.20;99.90;;;;;;5014205;28;20058;-75
2022/03/17 05:57:10;;;;;;;30.02;17.80;;;1.50;99.90;;;;;;5009988;28;20029;-74
2022/03/17 05:59:39;;;;;;;26.15;16.05;;;1.80;99.90;;;;;;5008238;28;20076;-74
2022/03/17 06:02:05;;;;;;;27.88;15.77;;;2.00;99.90;;;;;;5010566;28;20029;-74
2022/03/17 06:04:31;;;;;;;24.75;15.40;;;2.30;99.90;;;;;;5007102;28;20034;-74
2022/03/17 06:06:57;;;;;;;23.80;14.32;;;2.60;99.90;;;;;;5010759;28;20014;-74
2022/03/17 06:09:23;;;;;;;23.23;14.80;;;2.80;99.90;;;;;;5008278;28;20048;-74
2022/03/17 06:11:48;;;;;;;23.05;15.10;;;3.10;99.90;;;;;;4995294;28;20023;-75
2022/03/17 06:14:14;;;;;;;25.73;15.30;;;3.30;99.90;;;;;;4994799;28;20038;-73
2022/03/17 06:16:40;;;;;;;29.10;15.15;;;3.50;99.90;;;;;;4995024;28;20065;-77
2022/03/17 06:19:06;;;;;;;25.52;14.57;;;3.70;99.90;;;;;;4994809;28;20046;-77
2022/03/17 06:21:31;;;;;;;22.92;14.95;;;3.80;99.90;;;;;;4995030;28;20077;-75
2022/03/17 06:23:57;;;;;;;21.02;14.32;;;3.90;99.90;;;;;;4995230;28;20031;-76
2022/03/17 06:26:23;;;;;;;22.20;14.02;;;4.00;99.90;;;;;;4995037;28;20539;-69
2022/03/17 06:28:48;;;;;;;22.90;14.50;;;4.00;99.90;;;;;;4994794;28;20022;-68
2022/03/17 06:31:14;;;;;;;22.15;14.52;;;4.20;99.90;;;;;;4994907;28;20034;-68
2022/03/17 06:33:39;;;;;;;23.08;14.32;;;4.30;99.90;;;;;;4994694;28;20038;-68
2022/03/17 06:36:05;;;;;;;24.80;14.00;;;4.50;99.90;;;;;;4994598;28;20026;-68
2022/03/17 06:38:31;;;;;;;22.85;13.77;;;4.60;99.90;;;;;;4994151;28;20073;-69
2022/03/17 06:40:57;;;;;;;22.77;14.15;;;4.90;99.90;;;;;;4994613;28;20104;-68
2022/03/17 06:43:22;;;;;;;19.80;13.60;;;5.10;99.90;;;;;;5005372;28;20029;-69
2022/03/17 06:45:49;;;;;;;21.05;13.88;;;5.20;99.90;;;;;;5012894;28;20555;-71
2022/03/17 06:48:15;;;;;;;18.20;12.07;;;5.20;99.90;;;;;;5013802;28;20021;-72
2022/03/17 06:50:40;;;;;;;16.02;10.00;;;5.50;99.90;;;;;;5014132;28;20021;-72
2022/03/17 06:53:06;;;;;;;17.60;11.80;;;6.70;99.90;;;;;;5013861;28;20473;-74
2022/03/17 06:55:33;;;;;;;20.70;13.25;;;7.20;99.90;;;;;;5013914;28;20022;-73
2022/03/17 06:58:02;;;;;;;20.08;13.15;;;7.00;99.90;;;;;;5013749;28;20160;-71
2022/03/17 07:00:28;;;;;;;22.38;13.70;;;6.80;99.90;;;;;;5013353;28;20108;-71
2022/03/17 07:02:54;;;;;;;24.33;13.73;;;6.60;99.90;;;;;;5013707;28;20112;-73
2022/03/17 07:05:19;;;;;;;18.52;12.15;;;6.30;99.90;;;;;;5013736;28;20018;-71
2022/03/17 07:07:45;;;;;;;21.80;13.32;;;6.20;99.90;;;;;;5013937;28;20117;-69
2022/03/17 07:10:13;;;;;;;25.48;13.55;;;6.00;99.90;;;;;;5013439;28;20467;-68
2022/03/17 07:12:41;;;;;;;26.52;13.40;;;6.00;99.90;;;;;;5013765;28;20485;-65
2022/03/17 07:15:08;;;;;;;19.88;12.80;;;5.90;99.90;;;;;;5013505;28;20624;-65
2022/03/17 07:17:39;;;;;;;23.13;12.02;;;5.80;99.90;;;;;;5013851;28;20157;-66
2022/03/17 07:20:10;;;;;;;22.75;12.50;;;5.80;99.90;;;;;;5012291;28;20113;-66
2022/03/17 07:22:36;;;;;;;19.52;11.30;;;5.70;99.90;;;;;;5013573;28;20100;-68
2022/03/17 07:25:03;;;;;;;17.58;11.50;;;5.60;99.90;;;;;;5013104;28;20030;-69
2022/03/17 07:27:31;;;;;;;21.35;12.50;;;5.40;99.90;;;;;;5011902;28;20037;-67
2022/03/17 07:29:57;;;;;;;19.83;11.65;;;5.30;99.90;;;;;;5013213;28;20030;-72
2022/03/17 07:32:25;;;;;;;20.33;12.45;;;5.20;99.90;;;;;;5013039;28;20036;-71
2022/03/17 07:34:51;;;;;;;22.38;12.27;;;5.10;99.90;;;;;;5013096;28;20532;-70
2022/03/17 07:37:17;;;;;;;26.63;12.70;;;5.10;99.90;;;;;;5012583;28;20074;-69
2022/03/17 07:39:44;;;;;;;25.02;13.60;;;5.10;99.90;;;;;;5013030;28;20036;-70
2022/03/17 07:42:09;;;;;;;22.58;14.07;;;5.10;99.90;;;;;;5013343;28;20033;-70
2022/03/17 07:44:37;;;;;;;19.63;12.23;;;5.10;99.90;;;;;;5012653;28;20030;-70
2022/03/17 07:47:03;;;;;;;20.42;12.10;;;5.00;99.90;;;;;;5012940;28;20070;-67
2022/03/17 07:49:29;;;;;;;23.30;12.13;;;5.00;99.90;;;;;;5012674;28;20042;-67
2022/03/17 07:51:55;;;;;;;18.38;11.73;;;5.00;99.90;;;;;;5012653;28;20022;-65
2022/03/17 07:54:20;;;;;;;20.90;12.00;;;5.00;99.90;;;;;;5012274;28;20042;-67
2022/03/17 07:56:46;;;;;;;20.88;11.18;;;5.00;99.90;;;;;;5012657;28;20034;-67
2022/03/17 07:59:16;;;;;;;16.50;11.05;;;5.10;99.90;;;;;;5012060;28;20049;-66
2022/03/17 08:01:42;;;;;;;16.45;10.55;;;5.40;99.90;;;;;;5006689;28;20022;-67
2022/03/17 08:04:08;;;;;;;19.23;12.00;;;5.30;99.90;;;;;;5011855;28;20036;-67
2022/03/17 08:06:35;;;;;;;19.17;11.93;;;5.20;99.90;;;;;;5011301;28;20485;-67
2022/03/17 08:09:01;;;;;;;22.10;11.02;;;5.20;99.90;;;;;;4995668;28;20036;-70
2022/03/17 08:11:27;;;;;;;21.67;10.48;;;5.10;99.90;;;;;;5011812;28;20024;-70
2022/03/17 08:13:53;;;;;;;17.67;11.20;;;5.10;99.90;;;;;;5011073;28;20120;-71
2022/03/17 08:16:19;;;;;;;19.10;11.48;;;5.10;99.90;;;;;;5011542;28;20046;-72
2022/03/17 08:18:45;;;;;;;21.88;11.30;;;5.10;99.90;;;;;;5011850;28;20400;-68
2022/03/17 08:21:13;;;;;;;17.35;10.73;;;5.10;99.90;;;;;;5012062;28;20042;-69
2022/03/17 08:23:38;;;;;;;16.13;10.30;;;5.10;99.90;;;;;;5011779;28;20025;-69
2022/03/17 08:26:04;;;;;;;17.08;10.68;;;5.10;99.90;;;;;;5012012;28;20359;-69
2022/03/17 08:28:30;;;;;;;15.57;10.73;;;5.10;99.90;;;;;;5012006;28;20091;-67
2022/03/17 08:30:56;;;;;;;22.40;10.50;;;5.10;99.90;;;;;;5011901;28;20022;-67
2022/03/17 08:33:21;;;;;;;15.32;10.00;;;5.20;99.90;;;;;;5011892;28;20026;-67
2022/03/17 08:35:47;;;;;;;15.68;10.27;;;5.20;99.90;;;;;;5011440;28;20366;-67
2022/03/17 08:38:13;;;;;;;16.77;10.88;;;5.20;99.90;;;;;;5008247;28;20088;-67
2022/03/17 08:40:40;;;;;;;13.77;9.52;;;5.30;99.90;;;;;;5010785;28;20030;-67
2022/03/17 08:43:07;;;;;;;19.17;10.27;;;5.30;99.90;;;;;;5011397;28;20030;-67
2022/03/17 08:51:01;;;;;;;15.57;9.70;;;5.60;99.90;;;;;;5003284;28;20091;-68
2022/03/17 08:53:27;;;;;;;16.83;10.90;;;5.60;99.90;;;;;;5005680;28;20117;-68
2022/03/17 08:55:53;;;;;;;17.02;9.65;;;5.70;99.90;;;;;;4997245;28;20117;-67
2022/03/17 08:58:19;;;;;;;24.67;10.18;;;5.80;99.90;;;;;;4997176;28;20025;-68
2022/03/17 09:00:44;;;;;;;16.77;10.05;;;5.80;99.90;;;;;;5011571;28;20038;-68
2022/03/17 09:03:10;;;;;;;14.18;9.23;;;6.10;99.90;;;;;;5012609;28;20026;-70
2022/03/17 09:05:37;;;;;;;19.73;10.07;;;6.10;99.90;;;;;;5011544;28;20026;-69
2022/03/17 09:08:06;;;;;;;16.30;9.68;;;6.10;99.90;;;;;;5012015;28;20056;-70
2022/03/17 09:10:36;;;;;;;16.77;9.53;;;6.10;99.90;;;;;;5011797;28;20042;-71
2022/03/17 09:13:09;;;;;;;21.15;9.98;;;6.10;99.90;;;;;;5012032;28;20105;-71
2022/03/17 09:15:40;;;;;;;14.55;9.13;;;6.20;99.90;;;;;;5011859;28;20120;-71
2022/03/17 09:18:15;;;;;;;16.40;9.25;;;6.20;99.90;;;;;;5012027;28;20032;-70
2022/03/17 09:20:41;;;;;;;17.10;9.18;;;6.30;99.90;;;;;;5011781;28;20116;-69
2022/03/17 09:23:07;;;;;;;12.27;8.23;;;6.40;99.90;;;;;;5014711;28;20033;-70
2022/03/17 09:25:34;;;;;;;12.25;8.27;;;6.40;99.90;;;;;;5015390;28;20033;-69
2022/03/17 09:28:00;;;;;;;18.65;9.05;;;6.50;99.90;;;;;;5015224;28;20072;-69
2022/03/17 09:30:26;;;;;;;15.43;9.38;;;6.60;99.90;;;;;;5014341;28;20106;-72
2022/03/17 09:32:54;;;;;;;11.40;6.82;;;6.60;99.90;;;;;;5015219;28;20026;-73
2022/03/17 09:35:21;;;;;;;14.88;8.35;;;7.30;99.90;;;;;;5013433;28;20092;-73
2022/03/17 09:37:48;;;;;;;11.90;7.15;;;7.60;99.90;;;;;;5014926;28;20056;-73
2022/03/17 09:40:14;;;;;;;9.75;7.03;;;7.40;99.90;;;;;;5015205;28;20076;-73
2022/03/17 09:42:40;;;;;;;12.15;7.82;;;7.20;99.90;;;;;;5015500;28;20046;-73
2022/03/17 09:45:07;;;;;;;13.50;8.73;;;7.10;99.90;;;;;;5015317;28;20109;-73
2022/03/17 09:47:39;;;;;;;15.40;8.18;;;7.00;99.90;;;;;;5015137;28;20051;-73
2022/03/17 09:50:07;;;;;;;11.57;7.82;;;7.00;99.90;;;;;;5015555;28;20032;-72
2022/03/17 09:52:35;;;;;;;12.65;8.50;;;6.90;99.90;;;;;;5015134;28;20060;-74
2022/03/17 09:55:01;;;;;;;15.88;8.07;;;6.90;99.90;;;;;;5015148;28;20042;-73
2022/03/17 09:57:27;;;;;;;18.05;7.97;;;7.00;99.90;;;;;;5014944;28;20109;-72
2022/03/17 09:59:59;;;;;;;14.07;8.52;;;7.00;99.90;;;;;;5014946;28;20030;-72
2022/03/17 10:02:25;;;;;;;19.00;8.30;;;7.00;99.90;;;;;;5014679;28;20519;-73
2022/03/17 10:04:52;;;;;;;14.05;8.82;;;6.90;99.90;;;;;;5014819;28;20038;-73
2022/03/17 10:07:23;;;;;;;16.02;8.95;;;6.90;99.90;;;;;;5014247;28;20033;-73
2022/03/17 10:09:50;;;;;;;15.48;8.40;;;6.90;99.90;;;;;;5014817;28;20030;-73
2022/03/17 10:12:20;;;;;;;12.93;8.15;;;6.90;99.90;;;;;;5014446;28;20155;-73
2022/03/17 10:14:51;;;;;;;11.85;7.28;;;6.90;99.90;;;;;;5013433;28;20119;-73
2022/03/17 10:17:34;;;;;;;13.32;8.32;;;6.90;99.90;;;;;;5014509;28;20389;-73
2022/03/17 10:20:22;;;;;;;12.45;8.00;;;6.90;99.90;;;;;;5014728;28;20045;-74
2022/03/17 10:22:55;;;;;;;16.70;9.15;;;6.90;99.90;;;;;;5014037;28;20427;-73
2022/03/17 10:25:23;;;;;;;14.52;8.57;;;7.00;99.90;;;;;;5014161;28;20033;-72
2022/03/17 10:27:50;;;;;;;12.23;7.93;;;7.00;99.90;;;;;;5014043;28;20100;-74
2022/03/17 10:30:25;;;;;;;17.45;7.57;;;7.00;99.90;;;;;;5013668;28;20026;-71
2022/03/17 10:32:58;;;;;;;14.82;7.50;;;7.10;99.90;;;;;;5014032;28;20041;-71
2022/03/17 10:35:27;;;;;;;13.00;7.70;;;7.30;99.90;;;;;;5012594;28;20477;-71
2022/03/17 10:37:53;;;;;;;12.82;8.45;;;7.80;99.90;;;;;;5001075;28;20115;-71
2022/03/17 10:40:27;;;;;;;14.13;8.70;;;8.40;99.90;;;;;;4994191;28;20114;-71
2022/03/17 10:42:53;;;;;;;14.48;8.02;;;8.30;99.90;;;;;;5010405;28;20056;-70
2022/03/17 10:45:19;;;;;;;12.25;7.70;;;8.20;99.90;;;;;;5013855;28;20405;-71
2022/03/17 10:47:46;;;;;;;19.20;8.45;;;8.00;99.90;;;;;;5013958;28;20108;-73
2022/03/17 10:50:17;;;;;;;12.98;7.90;;;8.00;99.90;;;;;;5013197;28;20028;-71
2022/03/17 10:52:45;;;;;;;12.95;7.22;;;7.80;99.90;;;;;;5014104;28;20038;-72
2022/03/17 10:55:11;;;;;;;15.45;8.63;;;7.70;99.90;;;;;;4996355;28;20394;-72
2022/03/17 10:57:38;;;;;;;15.68;8.07;;;7.70;99.90;;;;;;4994314;28;20110;-71
2022/03/17 11:00:09;;;;;;;18.63;8.50;;;7.60;99.90;;;;;;5006299;28;20041;-72
2022/03/17 11:02:37;;;;;;;20.30;8.10;;;7.60;99.90;;;;;;5013233;28;20389;-71
2022/03/17 11:05:06;;;;;;;23.25;7.70;;;7.60;99.90;;;;;;4994429;28;20120;-71
2022/03/17 11:07:32;;;;;;;15.43;7.20;;;7.60;99.90;;;;;;4994014;28;20032;-71
2022/03/17 11:10:07;;;;;;;14.05;6.70;;;7.60;99.90;;;;;;5011413;28;20057;-71
2022/03/17 11:12:34;;;;;;;19.13;8.05;;;7.60;99.90;;;;;;5013226;28;20018;-73
2022/03/17 11:15:01;;;;;;;18.13;8.75;;;7.60;99.90;;;;;;5013355;28;20026;-71
2022/03/17 11:17:35;;;;;;;21.25;8.10;;;7.60;99.90;;;;;;5013466;28;20026;-72
2022/03/17 11:20:10;;;;;;;13.70;8.18;;;7.60;99.90;;;;;;5013369;28;20118;-72
2022/03/17 11:22:36;;;;;;;10.73;7.03;;;7.60;99.90;;;;;;5013081;28;20033;-72
2022/03/17 11:25:26;;;;;;;10.35;6.25;;;7.60;99.90;;;;;;5013587;28;20030;-71
2022/03/17 11:28:00;;;;;;;11.75;6.25;;;7.50;99.90;;;;;;5009631;28;20030;-71
2022/03/17 11:30:40;;;;;;;9.38;6.13;;;7.50;99.90;;;;;;4993707;28;20026;-71
2022/03/17 11:33:44;;;;;;;10.23;5.88;;;7.60;99.90;;;;;;4993640;28;20489;-70
2022/03/17 11:36:10;;;;;;;13.20;6.05;;;7.60;99.90;;;;;;4993601;28;20049;-71
2022/03/17 11:38:39;;;;;;;10.27;6.40;;;7.60;99.90;;;;;;4999296;28;20033;-70
2022/03/17 11:41:13;;;;;;;10.50;5.60;;;7.60;99.90;;;;;;5012973;28;20018;-66
2022/03/17 11:43:41;;;;;;;8.60;5.47;;;7.60;99.90;;;;;;5012834;28;20404;-66
2022/03/17 11:46:22;;;;;;;9.13;5.30;;;7.60;99.90;;;;;;5012814;28;20369;-70
2022/03/17 11:48:51;;;;;;;10.30;6.05;;;7.60;99.90;;;;;;5013008;28;20105;-71
2022/03/17 11:51:18;;;;;;;25.95;5.93;;;7.60;99.90;;;;;;5013027;28;20129;-70
2022/03/17 11:53:51;;;;;;;10.88;5.47;;;7.60;99.90;;;;;;5012554;28;20504;-70
2022/03/17 11:56:53;;;;;;;8.65;5.18;;;7.60;99.90;;;;;;5012813;28;20385;-70
2022/03/17 11:59:22;;;;;;;8.85;5.22;;;7.70;99.90;;;;;;5011057;28;20033;-71
2022/03/17 12:01:48;;;;;;;11.13;5.95;;;7.80;99.90;;;;;;5013019;28;20504;-71
2022/03/17 12:04:32;;;;;;;12.38;5.10;;;7.80;99.90;;;;;;5012930;28;20025;-71
2022/03/17 12:07:16;;;;;;;11.57;5.30;;;7.70;99.90;;;;;;5012582;28;20022;-71
2022/03/17 12:09:42;;;;;;;10.68;6.10;;;7.70;99.90;;;;;;4993244;28;20065;-70
2022/03/17 12:12:17;;;;;;;10.40;5.80;;;7.70;99.90;;;;;;4992977;28;20501;-70
2022/03/17 12:14:54;;;;;;;16.00;6.10;;;7.70;99.90;;;;;;4992809;28;20034;-70
2022/03/17 12:17:25;;;;;;;10.73;5.57;;;7.70;99.90;;;;;;4994203;28;20057;-70
2022/03/17 12:20:08;;;;;;;11.40;5.82;;;7.70;99.90;;;;;;5012357;28;20069;-70
2022/03/17 12:22:37;;;;;;;10.43;5.63;;;7.70;99.90;;;;;;5012127;28;20038;-70
2022/03/17 12:25:17;;;;;;;12.73;5.80;;;7.70;99.90;;;;;;5012208;28;20088;-70
2022/03/17 12:27:44;;;;;;;;;;;7.70;99.90;;;;;;5012773;28;20461;-70
2022/03/17 12:30:15;;;;;;;17.27;5.65;;;7.70;99.90;;;;;;5012418;28;20000;-70
2022/03/17 12:32:48;;;;;;;13.43;5.38;;;7.80;99.90;;;;;;5012088;28;20030;-70
2022/03/17 12:35:15;;;;;;;11.38;5.78;;;8.20;99.90;;;;;;5012360;28;20392;-70
2022/03/17 12:37:43;;;;;;;14.50;5.70;;;8.10;99.90;;;;;;5011987;28;20819;-70
2022/03/17 12:40:20;;;;;;;12.02;5.60;;;8.00;99.90;;;;;;5012114;28;20508;-70
2022/03/17 12:42:48;;;;;;;9.80;5.45;;;7.90;99.90;;;;;;5007915;28;20022;-70
2022/03/17 12:45:16;;;;;;;12.35;5.85;;;7.80;99.90;;;;;;4992609;28;20080;-70
2022/03/17 12:47:46;;;;;;;11.38;4.90;;;7.80;99.90;;;;;;4992443;28;20034;-74
2022/03/17 12:50:18;;;;;;;17.55;5.72;;;8.70;99.90;;;;;;4993915;28;20015;-72
2022/03/17 12:52:45;;;;;;;13.23;6.30;;;9.10;99.90;;;;;;5010822;28;20179;-70
2022/03/17 12:55:15;;;;;;;13.35;5.95;;;8.70;99.90;;;;;;5012386;28;20062;-71
2022/03/17 12:57:41;;;;;;;8.63;5.50;;;8.50;99.90;;;;;;5011382;28;20172;-71
2022/03/17 13:00:10;;;;;;;15.20;5.22;;;8.30;99.90;;;;;;5013847;28;20034;-71
2022/03/17 13:02:36;;;;;;;9.02;5.03;;;8.20;99.90;;;;;;5001081;28;20023;-71
2022/03/17 13:07:50;;;;;;;6.32;4.07;;;8.10;99.90;;;;;;5003909;28;20038;-71
2022/03/17 13:10:16;;;;;;;8.10;4.25;;;8.00;99.90;;;;;;5007095;28;20068;-72
2022/03/17 13:15:28;;;;;;;8.05;5.10;;;8.00;99.90;;;;;;5006433;28;20117;-72
2022/03/17 13:18:02;;;;;;;7.57;4.50;;;8.00;99.90;;;;;;4998781;28;20034;-72
2022/03/17 13:20:28;;;;;;;6.57;4.35;;;7.90;99.90;;;;;;4998582;28;20566;-72
2022/03/17 13:23:01;;;;;;;8.52;4.47;;;7.90;99.90;;;;;;4998641;28;20038;-72
2022/03/17 13:25:28;;;;;;;7.45;4.68;;;7.90;99.90;;;;;;4998743;28;20381;-71
2022/03/17 13:28:02;;;;;;;6.43;4.38;;;7.90;99.90;;;;;;4999252;28;20482;-71
2022/03/17 13:30:29;;;;;;;9.88;4.70;;;7.90;99.90;;;;;;5017172;28;20021;-71
2022/03/17 13:33:00;;;;;;;10.30;4.95;;;7.90;99.90;;;;;;5014104;28;20557;-71
2022/03/17 13:35:27;;;;;;;8.32;4.85;;;7.90;99.90;;;;;;5017012;28;20124;-74
2022/03/17 13:38:03;;;;;;;9.63;4.60;;;7.90;99.90;;;;;;5018011;28;20050;-74
2022/03/17 13:40:42;;;;;;;8.38;4.40;;;7.80;99.90;;;;;;5013337;28;20235;-73
2022/03/17 13:43:07;;;;;;;8.18;4.20;;;7.80;99.90;;;;;;5014004;28;20496;-70
2022/03/17 13:45:39;;;;;;;7.82;4.40;;;7.80;99.90;;;;;;5017275;28;20030;-72
2022/03/17 13:48:15;;;;;;;10.82;5.40;;;7.80;99.90;;;;;;5011112;28;20064;-73
2022/03/17 13:50:57;;;;;;;11.55;4.95;;;7.80;99.90;;;;;;5014154;28;20496;-72
2022/03/17 13:53:38;;;;;;;11.82;5.22;;;7.80;99.90;;;;;;5013307;28;20126;-72
2022/03/17 13:56:11;;;;;;;13.93;5.15;;;7.80;99.90;;;;;;5015326;28;20033;-72
2022/03/17 13:58:39;;;;;;;12.05;5.80;;;7.80;99.90;;;;;;5016219;28;20018;-71
2022/03/17 14:01:19;;;;;;;8.50;5.00;;;7.80;99.90;;;;;;5011652;28;20515;-71
2022/03/17 14:04:04;;;;;;;12.05;5.45;;;7.70;99.90;;;;;;5017134;28;20061;-72
2022/03/17 14:06:34;;;;;;;8.60;4.75;;;7.70;99.90;;;;;;5017090;28;20045;-72
2022/03/17 14:09:02;;;;;;;16.23;6.05;;;7.70;99.90;;;;;;4999731;28;20026;-72
2022/03/17 14:11:32;;;;;;;10.70;5.57;;;7.70;99.90;;;;;;5005614;28;20106;-71
2022/03/17 14:14:09;;;;;;;11.88;6.40;;;7.70;99.90;;;;;;5004534;28;20026;-71